Time;durP1;ratioP1;P1;durP2;ratioP2;P2;SDS_P1;SDS_P2;PMS_P1;PMS_P2;Temp;Humidity;BMP_temperature;BMP_pressure;BME280_temperature;BME280_humidity;BME280_pressure;Samples;Min_cycle;Max_cycle;Signal;HPM_P1;HPM_P2
2021/07/10 00:02:27;;;;;;;19.13;15.13;;;15.90;50.60;;;;;;5101188;27;20127;-74
2021/07/10 00:05:17;;;;;;;18.30;14.77;;;15.80;50.60;;;;;;5105324;27;20054;-73
2021/07/10 00:08:06;;;;;;;20.67;14.23;;;15.80;50.50;;;;;;5109505;27;20032;-73
2021/07/10 00:10:55;;;;;;;18.95;14.85;;;15.80;51.40;;;;;;5112360;27;20055;-73
2021/07/10 00:13:43;;;;;;;17.88;14.32;;;15.70;51.30;;;;;;5109044;27;20084;-73
2021/07/10 00:16:31;;;;;;;20.30;15.27;;;15.70;51.90;;;;;;5106965;27;20680;-72
2021/07/10 00:19:20;;;;;;;19.38;15.43;;;15.60;52.00;;;;;;5110138;27;20772;-73
2021/07/10 00:22:10;;;;;;;18.35;15.23;;;15.50;53.30;;;;;;5113847;27;20040;-73
2021/07/10 00:24:58;;;;;;;19.35;14.90;;;15.40;53.70;;;;;;5109840;27;20065;-72
2021/07/10 00:27:48;;;;;;;20.50;16.10;;;15.30;54.70;;;;;;5109924;27;20039;-73
2021/07/10 00:30:37;;;;;;;18.10;15.18;;;15.30;55.60;;;;;;5108802;27;20055;-73
2021/07/10 00:33:25;;;;;;;21.92;16.77;;;15.40;56.00;;;;;;5109262;27;20054;-73
2021/07/10 00:36:14;;;;;;;18.42;15.52;;;15.40;55.00;;;;;;5106102;27;20753;-73
2021/07/10 00:39:04;;;;;;;19.13;15.18;;;15.40;54.30;;;;;;5112249;27;20130;-73
2021/07/10 00:41:52;;;;;;;26.73;16.35;;;15.40;54.30;;;;;;5109594;27;20048;-73
2021/07/10 00:44:40;;;;;;;19.10;15.35;;;15.40;54.30;;;;;;5107940;27;20051;-73
2021/07/10 00:47:29;;;;;;;19.80;16.00;;;15.40;54.30;;;;;;5109164;27;20052;-73
2021/07/10 00:50:21;;;;;;;20.83;15.70;;;15.30;54.00;;;;;;5106818;27;20570;-73
2021/07/10 00:53:09;;;;;;;16.95;14.93;;;15.30;54.10;;;;;;5108498;27;20062;-73
2021/07/10 00:55:59;;;;;;;19.67;15.30;;;15.30;54.10;;;;;;5108027;27;20046;-74
2021/07/10 00:58:49;;;;;;;19.70;15.45;;;15.30;54.00;;;;;;5108178;27;20508;-74
2021/07/10 01:01:38;;;;;;;23.17;16.30;;;15.20;54.10;;;;;;5091297;27;20044;-73
2021/07/10 01:04:26;;;;;;;18.77;15.80;;;15.10;55.00;;;;;;5111849;27;20087;-73
2021/07/10 01:07:15;;;;;;;22.13;16.38;;;15.10;55.20;;;;;;5107541;27;20055;-72
2021/07/10 01:10:04;;;;;;;20.58;17.50;;;15.10;55.60;;;;;;5111510;27;20057;-73
2021/07/10 01:12:55;;;;;;;20.30;17.13;;;15.10;56.10;;;;;;5107363;27;20062;-73
2021/07/10 01:15:43;;;;;;;18.23;15.70;;;15.10;55.50;;;;;;5104746;27;20051;-72
2021/07/10 01:18:32;;;;;;;24.15;16.20;;;15.00;55.50;;;;;;5106449;27;20051;-72
2021/07/10 01:21:21;;;;;;;19.70;16.58;;;14.90;56.20;;;;;;5103396;27;20169;-74
2021/07/10 01:24:11;;;;;;;20.52;15.68;;;14.80;57.20;;;;;;5108930;27;20414;-72
2021/07/10 01:26:59;;;;;;;20.13;16.13;;;14.80;57.80;;;;;;5107415;27;20494;-72
2021/07/10 01:29:48;;;;;;;20.27;15.07;;;14.90;57.60;;;;;;5105150;27;20406;-72
2021/07/10 01:32:39;;;;;;;17.98;15.30;;;14.90;57.60;;;;;;5111999;27;20044;-74
2021/07/10 01:35:27;;;;;;;16.15;14.00;;;14.90;57.30;;;;;;5103174;27;20125;-73
2021/07/10 01:38:17;;;;;;;17.10;14.68;;;14.90;57.60;;;;;;5112303;27;20054;-73
2021/07/10 01:41:05;;;;;;;20.02;15.27;;;14.80;57.10;;;;;;5110855;27;20052;-72
2021/07/10 01:43:54;;;;;;;17.45;14.40;;;14.70;57.60;;;;;;5097603;27;20035;-73
2021/07/10 01:46:42;;;;;;;16.70;14.20;;;14.70;57.70;;;;;;5101852;27;20052;-73
2021/07/10 01:49:30;;;;;;;19.95;15.10;;;14.70;57.80;;;;;;5112618;27;20070;-73
2021/07/10 01:52:19;;;;;;;18.77;14.52;;;14.70;57.70;;;;;;5092952;27;20047;-74
2021/07/10 01:55:11;;;;;;;18.23;14.70;;;14.60;57.80;;;;;;5103566;27;20478;-73
2021/07/10 01:58:01;;;;;;;18.65;15.38;;;14.60;58.80;;;;;;5107780;27;20048;-73
2021/07/10 02:00:50;;;;;;;23.20;15.27;;;14.70;59.40;;;;;;5111599;27;20126;-74
2021/07/10 02:03:38;;;;;;;20.85;15.02;;;14.60;58.70;;;;;;5109292;27;20055;-74
2021/07/10 02:06:27;;;;;;;20.13;15.05;;;14.60;59.60;;;;;;5107458;27;20039;-73
2021/07/10 02:09:16;;;;;;;19.23;15.40;;;14.50;60.20;;;;;;5110790;27;20055;-74
2021/07/10 02:12:06;;;;;;;19.17;14.32;;;14.50;60.70;;;;;;5107528;27;20297;-74
2021/07/10 02:14:55;;;;;;;21.33;14.80;;;14.50;60.80;;;;;;5109863;27;20039;-73
2021/07/10 02:17:44;;;;;;;19.70;15.13;;;14.40;60.80;;;;;;5109802;27;20059;-73
2021/07/10 02:20:35;;;;;;;19.67;15.05;;;14.40;61.40;;;;;;5091180;27;20059;-74
2021/07/10 02:23:23;;;;;;;22.50;16.20;;;14.40;61.30;;;;;;5093798;28;20121;-72
2021/07/10 02:26:12;;;;;;;20.15;16.38;;;14.40;61.50;;;;;;5105113;27;20048;-72
2021/07/10 02:29:03;;;;;;;19.90;16.23;;;14.40;61.50;;;;;;5108090;27;20089;-73
2021/07/10 02:31:52;;;;;;;23.85;15.65;;;14.40;61.30;;;;;;5107790;27;20679;-73
2021/07/10 02:34:40;;;;;;;22.00;15.75;;;14.40;61.10;;;;;;5105358;27;20055;-73
2021/07/10 02:37:29;;;;;;;19.45;16.08;;;14.30;60.80;;;;;;5108729;27;20123;-73
2021/07/10 02:40:19;;;;;;;20.83;15.57;;;14.20;61.30;;;;;;5110906;27;20051;-73
2021/07/10 02:43:07;;;;;;;21.42;15.00;;;14.20;61.20;;;;;;5107053;27;20130;-73
2021/07/10 02:45:57;;;;;;;22.75;16.42;;;14.20;61.30;;;;;;5104299;27;20039;-72
2021/07/10 02:48:46;;;;;;;19.77;15.77;;;14.20;61.30;;;;;;5105654;27;20654;-72
2021/07/10 02:51:35;;;;;;;21.80;16.27;;;14.10;61.20;;;;;;5109024;27;20063;-72
2021/07/10 02:54:23;;;;;;;19.77;17.00;;;14.20;61.30;;;;;;5106564;27;20544;-72
2021/07/10 02:57:11;;;;;;;21.98;17.17;;;14.20;61.30;;;;;;5112375;27;20047;-73
2021/07/10 03:00:00;;;;;;;20.15;16.05;;;14.20;61.30;;;;;;5104088;27;20062;-73
2021/07/10 03:02:49;;;;;;;24.42;16.85;;;14.30;61.20;;;;;;5109281;28;20058;-73
2021/07/10 03:05:38;;;;;;;22.77;16.38;;;14.30;60.40;;;;;;5087191;28;20046;-73
2021/07/10 03:08:28;;;;;;;19.17;15.77;;;14.30;60.30;;;;;;5108910;28;20059;-73
2021/07/10 03:11:16;;;;;;;20.58;16.85;;;14.30;59.60;;;;;;5107849;28;20100;-73
2021/07/10 03:14:06;;;;;;;20.73;16.55;;;14.20;60.10;;;;;;5107164;28;20066;-73
2021/07/10 03:16:54;;;;;;;23.48;17.33;;;14.30;60.30;;;;;;5093852;28;20104;-73
2021/07/10 03:19:44;;;;;;;20.30;16.25;;;14.30;59.90;;;;;;5107460;28;20505;-73
2021/07/10 03:22:32;;;;;;;21.75;16.55;;;14.30;60.10;;;;;;5107911;28;20046;-74
2021/07/10 03:25:21;;;;;;;19.52;16.83;;;14.20;59.60;;;;;;5099813;28;20039;-73
2021/07/10 03:28:09;;;;;;;22.27;18.02;;;14.30;60.30;;;;;;5109277;28;20536;-72
2021/07/10 03:30:58;;;;;;;23.55;17.35;;;14.20;60.00;;;;;;5110415;28;20134;-73
2021/07/10 03:33:46;;;;;;;22.52;18.63;;;14.20;61.20;;;;;;5109512;28;20043;-72
2021/07/10 03:36:36;;;;;;;26.77;18.52;;;14.10;61.10;;;;;;5103092;28;20131;-73
2021/07/10 03:39:25;;;;;;;22.38;18.13;;;14.10;61.50;;;;;;5101158;28;20051;-73
2021/07/10 03:42:14;;;;;;;21.02;17.25;;;14.10;62.00;;;;;;5094965;28;20074;-73
2021/07/10 03:45:02;;;;;;;21.98;17.45;;;14.20;62.20;;;;;;5109571;28;20062;-73
2021/07/10 03:47:50;;;;;;;22.08;17.83;;;14.20;62.00;;;;;;5097655;28;20050;-73
2021/07/10 03:50:39;;;;;;;24.58;18.00;;;14.40;60.20;;;;;;5104918;28;20104;-73
2021/07/10 03:53:28;;;;;;;19.92;16.80;;;14.60;57.60;;;;;;5105667;28;20047;-73
2021/07/10 03:56:19;;;;;;;18.98;16.60;;;14.60;56.80;;;;;;5105409;28;20044;-73
2021/07/10 03:59:07;;;;;;;18.55;16.30;;;15.10;55.00;;;;;;5107440;28;20044;-74
2021/07/10 04:01:56;;;;;;;19.38;15.98;;;15.30;49.40;;;;;;5109343;28;20051;-74
2021/07/10 04:04:44;;;;;;;18.40;15.18;;;15.80;44.30;;;;;;5109910;28;20082;-73
2021/07/10 04:07:33;;;;;;;16.60;14.82;;;15.90;37.60;;;;;;5106084;28;20092;-73
2021/07/10 04:10:22;;;;;;;16.20;14.45;;;16.00;36.40;;;;;;5110495;28;20056;-73
2021/07/10 04:13:11;;;;;;;17.27;14.55;;;16.40;32.70;;;;;;5105925;28;20044;-73
2021/07/10 04:16:01;;;;;;;15.57;13.27;;;16.70;26.60;;;;;;5105261;28;20048;-74
2021/07/10 04:18:49;;;;;;;15.73;12.50;;;17.00;22.60;;;;;;5105685;28;20153;-72
2021/07/10 04:21:37;;;;;;;13.60;12.02;;;17.30;21.20;;;;;;5113287;27;20050;-73
2021/07/10 04:24:26;;;;;;;12.65;11.07;;;17.40;16.50;;;;;;5112471;27;20051;-73
2021/07/10 04:27:16;;;;;;;12.25;10.52;;;17.60;15.60;;;;;;5109216;27;20123;-74
2021/07/10 04:30:07;;;;;;;13.73;9.75;;;17.70;14.00;;;;;;5105310;27;20127;-73
2021/07/10 04:32:56;;;;;;;10.63;9.50;;;17.90;11.80;;;;;;5111837;27;20051;-73
2021/07/10 04:35:44;;;;;;;10.55;9.45;;;17.90;10.40;;;;;;5092574;27;20073;-73
2021/07/10 04:38:37;;;;;;;11.70;9.18;;;18.00;9.50;;;;;;5112918;27;20494;-73
2021/07/10 04:41:25;;;;;;;11.30;9.90;;;18.40;7.10;;;;;;5110322;27;20105;-73
2021/07/10 04:44:15;;;;;;;10.02;8.50;;;18.40;5.80;;;;;;5104360;27;20130;-73
2021/07/10 04:47:04;;;;;;;13.77;9.23;;;18.80;4.40;;;;;;5113889;27;20048;-74
2021/07/10 04:49:52;;;;;;;10.52;9.10;;;18.50;4.20;;;;;;5111181;27;20069;-73
2021/07/10 04:52:42;;;;;;;13.93;9.60;;;19.00;3.50;;;;;;5095636;28;20066;-74
2021/07/10 04:55:30;;;;;;;11.05;9.45;;;19.50;2.20;;;;;;5105069;27;20445;-73
2021/07/10 04:58:19;;;;;;;10.00;8.98;;;19.00;1.00;;;;;;5111310;27;20039;-74
2021/07/10 05:01:09;;;;;;;12.93;10.52;;;19.20;1.00;;;;;;5113326;27;20467;-73
2021/07/10 05:03:58;;;;;;;11.45;8.77;;;19.20;1.10;;;;;;5110834;27;20176;-73
2021/07/10 05:06:46;;;;;;;10.95;9.30;;;18.60;2.10;;;;;;5108989;27;20031;-73
2021/07/10 05:09:34;;;;;;;10.85;9.50;;;18.80;1.00;;;;;;5112555;27;20058;-73
2021/07/10 05:12:23;;;;;;;11.80;8.90;;;19.30;1.00;;;;;;5114287;27;20051;-73
2021/07/10 05:15:12;;;;;;;12.45;9.63;;;19.20;1.00;;;;;;5108112;27;20065;-73
2021/07/10 05:18:01;;;;;;;11.52;9.90;;;20.20;1.00;;;;;;5094435;27;20047;-73
2021/07/10 05:20:50;;;;;;;12.10;9.57;;;20.20;1.00;;;;;;5107918;27;20413;-73
2021/07/10 05:23:38;;;;;;;10.55;9.43;;;19.50;1.00;;;;;;5111614;27;20058;-73
2021/07/10 05:26:27;;;;;;;14.27;10.70;;;19.60;1.00;;;;;;5114632;27;20130;-72
2021/07/10 05:29:16;;;;;;;14.02;10.05;;;20.10;1.00;;;;;;5109747;27;20057;-73
2021/07/10 05:32:06;;;;;;;15.70;10.55;;;19.10;1.00;;;;;;5109711;27;20048;-73
2021/07/10 05:34:55;;;;;;;15.05;11.20;;;18.20;5.90;;;;;;5111625;27;20055;-73
2021/07/10 05:37:44;;;;;;;14.70;11.07;;;17.60;9.30;;;;;;5110073;27;20040;-73
2021/07/10 05:40:32;;;;;;;13.27;11.65;;;18.10;9.60;;;;;;5109399;27;20122;-72
2021/07/10 05:43:23;;;;;;;12.45;11.13;;;18.90;5.00;;;;;;5105364;27;20050;-73
2021/07/10 05:46:11;;;;;;;17.48;12.27;;;19.50;2.40;;;;;;5109785;27;20074;-73
2021/07/10 05:49:01;;;;;;;11.55;10.35;;;19.80;1.00;;;;;;5106304;27;20058;-73
2021/07/10 05:51:51;;;;;;;15.70;11.60;;;19.90;1.00;;;;;;5113328;27;21532;-73
2021/07/10 05:54:39;;;;;;;12.73;11.43;;;19.50;1.00;;;;;;5092554;27;20044;-73
2021/07/10 05:57:27;;;;;;;12.63;10.07;;;20.20;1.00;;;;;;5108848;27;20720;-73
2021/07/10 06:00:16;;;;;;;12.40;11.07;;;19.80;1.00;;;;;;5106523;27;20051;-73
2021/07/10 06:03:11;;;;;;;14.02;11.48;;;20.20;1.00;;;;;;5085075;27;20217;-72
2021/07/10 06:05:59;;;;;;;13.25;11.48;;;19.50;1.00;;;;;;5106167;27;20048;-73
2021/07/10 06:08:49;;;;;;;12.48;11.18;;;20.40;1.00;;;;;;5104893;27;20047;-73
2021/07/10 06:11:37;;;;;;;16.70;12.05;;;20.00;1.00;;;;;;5107675;27;20051;-74
2021/07/10 06:14:25;;;;;;;13.93;11.25;;;19.70;1.00;;;;;;5108812;27;20044;-73
2021/07/10 06:17:14;;;;;;;12.80;11.05;;;19.70;1.40;;;;;;5109864;27;20047;-73
2021/07/10 06:20:02;;;;;;;11.80;10.20;;;18.70;6.30;;;;;;5109755;27;20040;-73
2021/07/10 06:22:52;;;;;;;10.63;9.45;;;18.90;8.80;;;;;;5106214;27;20467;-73
2021/07/10 06:25:42;;;;;;;11.30;9.38;;;19.00;8.60;;;;;;5090214;27;20046;-74
2021/07/10 06:28:30;;;;;;;10.40;8.52;;;19.00;9.50;;;;;;5113073;27;20028;-73
2021/07/10 06:31:19;;;;;;;10.57;8.98;;;18.90;8.20;;;;;;5110002;27;20050;-74
2021/07/10 06:34:10;;;;;;;10.27;9.00;;;19.20;7.40;;;;;;5109592;27;20039;-73
2021/07/10 06:37:01;;;;;;;9.35;8.05;;;19.40;9.20;;;;;;5108024;27;20051;-73
2021/07/10 06:39:49;;;;;;;9.00;7.85;;;19.00;8.50;;;;;;5106413;27;20541;-73
2021/07/10 06:42:39;;;;;;;10.07;8.95;;;19.10;6.60;;;;;;5108821;27;20555;-73
2021/07/10 06:45:28;;;;;;;10.82;9.38;;;19.40;7.10;;;;;;5105471;27;20725;-73
2021/07/10 06:48:16;;;;;;;10.52;9.38;;;19.00;10.80;;;;;;5104579;27;20115;-73
2021/07/10 06:51:05;;;;;;;10.50;8.15;;;19.00;10.20;;;;;;5112568;27;20046;-74
2021/07/10 06:53:54;;;;;;;11.38;8.18;;;18.90;10.20;;;;;;5108036;27;20046;-73
2021/07/10 06:56:42;;;;;;;10.07;7.97;;;19.40;8.40;;;;;;5105583;27;20044;-74
2021/07/10 06:59:32;;;;;;;8.32;7.53;;;19.60;8.10;;;;;;5106913;27;20043;-73
2021/07/10 07:02:21;;;;;;;8.52;7.55;;;19.70;8.50;;;;;;5108499;27;20131;-72
2021/07/10 07:05:10;;;;;;;9.18;8.00;;;19.50;9.20;;;;;;5108207;27;20537;-73
2021/07/10 07:07:59;;;;;;;9.60;8.32;;;19.60;7.50;;;;;;5109450;28;20072;-72
2021/07/10 07:10:47;;;;;;;8.25;7.45;;;19.50;9.10;;;;;;5100935;28;20821;-74
2021/07/10 07:13:35;;;;;;;7.80;7.03;;;19.30;8.70;;;;;;5108346;28;20044;-73
2021/07/10 07:16:25;;;;;;;8.27;7.28;;;19.20;9.00;;;;;;5102178;28;20426;-73
2021/07/10 07:19:13;;;;;;;9.77;6.22;;;19.60;7.40;;;;;;5106702;28;20040;-73
2021/07/10 07:22:02;;;;;;;8.25;6.80;;;20.40;5.10;;;;;;5106910;28;20043;-73
2021/07/10 07:24:50;;;;;;;9.18;7.03;;;20.60;3.70;;;;;;5105434;28;20051;-73
2021/07/10 07:27:39;;;;;;;8.18;6.65;;;20.40;2.90;;;;;;5107936;28;20676;-72
2021/07/10 07:30:27;;;;;;;12.10;7.03;;;20.60;3.30;;;;;;5112828;28;20118;-73
2021/07/10 07:33:17;;;;;;;9.63;6.38;;;20.60;2.80;;;;;;5109229;28;20154;-74
2021/07/10 07:36:06;;;;;;;6.43;5.65;;;20.60;2.60;;;;;;5092458;28;20047;-73
2021/07/10 07:38:54;;;;;;;6.88;5.53;;;20.80;1.00;;;;;;5105458;28;20521;-73
2021/07/10 07:41:43;;;;;;;6.43;5.72;;;21.00;1.00;;;;;;5109472;28;20525;-73
2021/07/10 07:44:35;;;;;;;6.88;6.00;;;21.00;1.00;;;;;;5113669;28;20516;-73
2021/07/10 07:47:25;;;;;;;6.55;5.70;;;21.00;1.00;;;;;;5108886;28;20155;-73
2021/07/10 07:50:16;;;;;;;7.85;5.72;;;20.90;1.00;;;;;;5109701;28;20047;-73
2021/07/10 07:53:04;;;;;;;11.85;5.70;;;21.20;1.00;;;;;;5105643;28;20115;-73
2021/07/10 07:55:53;;;;;;;6.13;5.53;;;21.30;1.00;;;;;;5104659;27;20453;-73
2021/07/10 07:58:41;;;;;;;5.93;4.85;;;21.70;1.00;;;;;;5111811;27;20047;-74
2021/07/10 08:01:31;;;;;;;6.47;4.97;;;21.80;1.00;;;;;;5112406;27;20057;-73
2021/07/10 08:04:19;;;;;;;6.90;4.82;;;22.00;1.00;;;;;;5095355;27;20507;-73
2021/07/10 08:07:09;;;;;;;5.82;5.13;;;21.90;1.00;;;;;;5092916;27;20515;-73
2021/07/10 08:09:57;;;;;;;6.28;5.05;;;21.70;1.00;;;;;;5099425;27;20039;-74
2021/07/10 08:12:49;;;;;;;6.25;5.35;;;22.00;1.00;;;;;;5112062;27;20047;-74
2021/07/10 08:15:38;;;;;;;7.88;5.60;;;21.80;1.00;;;;;;5108187;27;20050;-73
2021/07/10 08:18:27;;;;;;;6.88;5.10;;;21.80;1.00;;;;;;5106884;27;20047;-74
2021/07/10 08:21:15;;;;;;;4.85;4.40;;;21.60;1.00;;;;;;5109191;27;20043;-74
2021/07/10 08:24:05;;;;;;;6.28;4.60;;;21.70;1.00;;;;;;5107189;27;20058;-74
2021/07/10 08:27:02;;;;;;;9.07;4.55;;;21.90;1.00;;;;;;5109700;27;20039;-74
2021/07/10 08:29:51;;;;;;;4.65;4.25;;;22.20;1.00;;;;;;5108608;27;20055;-74
2021/07/10 08:32:39;;;;;;;5.72;4.47;;;22.10;1.00;;;;;;5112475;27;20071;-74
2021/07/10 08:35:28;;;;;;;8.00;4.95;;;21.90;1.00;;;;;;5092860;27;20043;-74
2021/07/10 08:38:16;;;;;;;5.65;4.55;;;22.50;1.00;;;;;;5114625;27;20044;-73
2021/07/10 08:41:07;;;;;;;5.88;4.88;;;22.40;1.00;;;;;;5111727;27;20047;-75
2021/07/10 08:43:56;;;;;;;7.72;4.65;;;22.60;1.00;;;;;;5112645;27;20039;-74
2021/07/10 08:46:46;;;;;;;7.03;5.55;;;22.50;1.00;;;;;;5109251;27;20067;-74
2021/07/10 08:49:36;;;;;;;5.70;5.13;;;21.90;1.00;;;;;;5108253;27;20039;-74
2021/07/10 08:52:25;;;;;;;5.30;4.63;;;22.00;1.00;;;;;;5112838;27;20047;-75
2021/07/10 08:55:15;;;;;;;5.32;4.30;;;22.70;1.00;;;;;;5105610;27;20249;-73
2021/07/10 08:58:05;;;;;;;6.35;4.70;;;23.30;1.00;;;;;;5093184;27;20190;-74
2021/07/10 09:00:54;;;;;;;4.03;3.28;;;23.20;1.00;;;;;;5111628;27;21233;-74
2021/07/10 09:03:43;;;;;;;4.03;2.90;;;23.40;1.00;;;;;;5111183;27;20599;-75
2021/07/10 09:06:31;;;;;;;5.20;4.50;;;23.00;1.00;;;;;;5109708;27;20055;-74
2021/07/10 09:09:20;;;;;;;4.68;3.65;;;23.10;1.00;;;;;;5106829;27;20133;-74
2021/07/10 09:12:08;;;;;;;4.25;3.75;;;23.30;1.00;;;;;;5108390;27;20054;-74
2021/07/10 09:15:17;;;;;;;3.70;3.15;;;23.00;1.00;;;;;;5104328;27;20047;-73
2021/07/10 09:18:07;;;;;;;8.40;4.13;;;23.40;1.00;;;;;;5104769;27;20039;-75
2021/07/10 09:20:56;;;;;;;3.53;3.17;;;23.40;1.00;;;;;;5113065;27;20051;-74
2021/07/10 09:23:46;;;;;;;4.35;3.50;;;23.50;1.00;;;;;;5110179;27;20071;-75
2021/07/10 09:26:35;;;;;;;3.95;3.55;;;23.90;1.00;;;;;;5107710;27;20035;-75
2021/07/10 09:29:25;;;;;;;4.25;3.70;;;23.60;1.00;;;;;;5108472;27;20092;-74
2021/07/10 09:32:18;;;;;;;5.47;3.65;;;23.40;1.00;;;;;;5112964;27;20061;-75
2021/07/10 09:35:09;;;;;;;4.05;3.30;;;23.10;1.00;;;;;;5107141;27;20046;-75
2021/07/10 09:37:58;;;;;;;3.65;3.33;;;23.40;1.00;;;;;;5108832;27;20122;-74
2021/07/10 09:40:56;;;;;;;2.97;2.72;;;23.70;1.00;;;;;;5106193;27;20614;-74
2021/07/10 09:43:47;;;;;;;4.47;2.90;;;23.60;1.00;;;;;;5115642;27;20051;-74
2021/07/10 09:46:36;;;;;;;3.13;2.55;;;23.70;1.00;;;;;;5110436;27;20417;-74
2021/07/10 09:49:31;;;;;;;4.15;3.00;;;23.80;1.00;;;;;;5093332;27;20058;-74
2021/07/10 09:52:21;;;;;;;3.38;2.50;;;24.30;1.00;;;;;;5107874;27;20043;-74
2021/07/10 09:55:11;;;;;;;3.80;2.63;;;24.30;1.00;;;;;;5106582;27;20070;-74
2021/07/10 09:58:00;;;;;;;2.55;2.13;;;24.40;1.00;;;;;;5114089;27;20054;-74
2021/07/10 10:00:48;;;;;;;4.80;2.70;;;24.40;1.00;;;;;;5111947;27;20034;-75
2021/07/10 10:03:36;;;;;;;3.20;2.25;;;24.10;1.00;;;;;;5107316;27;20495;-74
2021/07/10 10:06:33;;;;;;;3.10;2.78;;;24.40;1.00;;;;;;5089198;27;20100;-75
2021/07/10 10:09:23;;;;;;;3.92;2.88;;;24.20;1.00;;;;;;5103985;27;20108;-75
2021/07/10 10:12:13;;;;;;;4.07;2.78;;;24.90;1.00;;;;;;5111168;27;20115;-74
2021/07/10 10:15:01;;;;;;;2.95;2.60;;;25.00;1.00;;;;;;5088771;27;20053;-75
2021/07/10 10:17:50;;;;;;;2.80;2.60;;;24.30;1.00;;;;;;5107839;27;20055;-74
2021/07/10 10:20:40;;;;;;;2.88;2.67;;;24.00;1.00;;;;;;5108322;27;20555;-74
2021/07/10 10:23:30;;;;;;;4.75;4.15;;;23.70;1.00;;;;;;5111174;27;20047;-75
2021/07/10 10:26:20;;;;;;;2.92;2.60;;;24.40;1.00;;;;;;5105172;27;20044;-74
2021/07/10 10:29:13;;;;;;;2.83;2.60;;;24.00;1.00;;;;;;5108862;27;20039;-74
2021/07/10 10:32:04;;;;;;;4.20;3.20;;;24.30;1.00;;;;;;5076309;27;20419;-76
2021/07/10 10:34:55;;;;;;;3.30;3.00;;;24.80;1.00;;;;;;5109661;27;20154;-75
2021/07/10 10:37:46;;;;;;;3.88;3.00;;;25.10;1.00;;;;;;5109117;27;20043;-75
2021/07/10 10:40:37;;;;;;;3.15;2.85;;;25.30;1.00;;;;;;5092935;27;20123;-75
2021/07/10 10:43:30;;;;;;;3.22;2.75;;;25.40;1.00;;;;;;5104741;27;20043;-74
2021/07/10 10:46:23;;;;;;;3.60;2.30;;;24.90;1.00;;;;;;5088121;27;20058;-75
2021/07/10 10:49:47;;;;;;;3.10;2.67;;;24.90;1.00;;;;;;5089699;28;20069;-75
2021/07/10 10:52:44;;;;;;;6.55;3.10;;;25.00;1.00;;;;;;5104749;27;20567;-73
2021/07/10 10:55:38;;;;;;;3.03;2.67;;;24.60;1.00;;;;;;5104600;27;20044;-75
2021/07/10 10:58:29;;;;;;;3.67;3.03;;;24.40;1.00;;;;;;5104383;27;20560;-75
2021/07/10 11:01:31;;;;;;;3.40;2.80;;;24.80;1.00;;;;;;5090062;28;20483;-75
2021/07/10 11:04:56;;;;;;;3.00;2.75;;;24.60;1.00;;;;;;5089238;28;20047;-75
2021/07/10 11:07:44;;;;;;;3.83;3.25;;;24.70;1.00;;;;;;5106087;27;20055;-74
2021/07/10 11:10:39;;;;;;;3.45;2.38;;;25.30;1.00;;;;;;5101191;28;20673;-75
2021/07/10 11:13:31;;;;;;;3.20;2.83;;;25.30;1.00;;;;;;5079324;28;20059;-75
2021/07/10 11:16:22;;;;;;;3.35;2.53;;;25.60;1.00;;;;;;5101268;28;20073;-75
2021/07/10 11:19:11;;;;;;;3.22;2.70;;;25.70;1.00;;;;;;5091319;28;20132;-75
2021/07/10 11:22:05;;;;;;;3.60;2.72;;;25.90;1.00;;;;;;5104962;28;20043;-74
2021/07/10 11:24:54;;;;;;;4.40;3.13;;;25.70;1.00;;;;;;5080269;28;20051;-74
2021/07/10 11:27:44;;;;;;;5.40;3.13;;;25.40;1.00;;;;;;5105982;28;20123;-75
2021/07/10 11:30:44;;;;;;;3.80;3.17;;;25.70;1.00;;;;;;5112764;27;20039;-75
2021/07/10 11:34:10;;;;;;;3.33;2.90;;;25.20;1.00;;;;;;5108884;27;20054;-74
2021/07/10 11:37:00;;;;;;;3.88;3.35;;;25.30;1.00;;;;;;5107689;27;20039;-74
2021/07/10 11:39:56;;;;;;;4.30;2.72;;;25.40;1.00;;;;;;5109950;27;20039;-74
2021/07/10 11:43:05;;;;;;;2.92;2.63;;;25.80;1.00;;;;;;5112738;27;20055;-75
2021/07/10 11:45:55;;;;;;;3.67;3.30;;;26.10;1.00;;;;;;5109365;27;20526;-75
2021/07/10 11:49:39;;;;;;;3.47;2.50;;;25.00;1.00;;;;;;5111162;27;20047;-75
2021/07/10 11:52:28;;;;;;;4.25;2.90;;;25.20;1.00;;;;;;5096899;27;20070;-75
2021/07/10 11:55:22;;;;;;;3.00;2.60;;;25.80;1.00;;;;;;5104889;27;20314;-74
2021/07/10 11:58:14;;;;;;;3.75;2.55;;;25.70;1.00;;;;;;5115116;27;20039;-74
2021/07/10 12:01:04;;;;;;;3.70;2.60;;;25.50;1.00;;;;;;5120003;27;20035;-74
2021/07/10 12:03:54;;;;;;;2.92;2.40;;;25.60;1.00;;;;;;5085967;27;20128;-74
2021/07/10 12:06:43;;;;;;;3.53;2.60;;;25.70;1.00;;;;;;5097705;27;20042;-75
2021/07/10 12:09:50;;;;;;;2.88;2.47;;;25.80;1.00;;;;;;5077945;27;20415;-74
2021/07/10 12:12:45;;;;;;;2.58;2.38;;;26.00;1.00;;;;;;5093032;27;20047;-74
2021/07/10 12:15:38;;;;;;;3.45;2.50;;;25.60;1.00;;;;;;5105661;27;20051;-74
2021/07/10 12:18:31;;;;;;;2.45;2.20;;;25.60;1.00;;;;;;5113518;27;20062;-74
2021/07/10 12:21:20;;;;;;;2.65;2.45;;;26.30;1.00;;;;;;5096339;27;20169;-74
2021/07/10 12:24:10;;;;;;;2.60;2.20;;;26.60;1.00;;;;;;5098695;27;20047;-74
2021/07/10 12:27:08;;;;;;;3.33;2.33;;;26.10;1.00;;;;;;5079142;27;20173;-73
2021/07/10 12:29:57;;;;;;;3.53;2.25;;;26.40;1.00;;;;;;5097707;27;20123;-75
2021/07/10 12:32:47;;;;;;;3.75;2.35;;;26.30;1.00;;;;;;5100682;27;20096;-74
2021/07/10 12:35:37;;;;;;;3.25;2.63;;;26.60;1.00;;;;;;5094563;27;20493;-73
2021/07/10 12:38:25;;;;;;;2.70;2.42;;;26.30;1.00;;;;;;5078248;27;20047;-73
2021/07/10 12:41:27;;;;;;;2.53;2.30;;;26.00;1.00;;;;;;5094116;27;20233;-74
2021/07/10 12:44:19;;;;;;;4.63;3.15;;;26.10;1.00;;;;;;5099579;27;20036;-73
2021/07/10 12:47:10;;;;;;;6.30;3.88;;;26.50;1.00;;;;;;5105472;27;20040;-74
2021/07/10 12:50:03;;;;;;;3.80;2.40;;;26.50;1.00;;;;;;5107493;27;20043;-73
2021/07/10 12:52:57;;;;;;;4.13;2.78;;;26.60;1.00;;;;;;5109705;27;20118;-74
2021/07/10 12:55:59;;;;;;;3.63;2.13;;;26.60;1.00;;;;;;5104337;27;20463;-72
2021/07/10 12:58:48;;;;;;;3.80;2.20;;;25.90;1.00;;;;;;5105033;27;20071;-73
2021/07/10 13:01:36;;;;;;;2.97;2.00;;;25.80;1.00;;;;;;5110276;27;20040;-74
2021/07/10 13:04:32;;;;;;;5.53;2.30;;;26.00;1.00;;;;;;5105392;27;20466;-75
2021/07/10 13:07:30;;;;;;;4.95;2.17;;;26.60;1.00;;;;;;5106407;27;20132;-74
2021/07/10 13:10:30;;;;;;;2.13;1.92;;;26.70;1.00;;;;;;5101732;27;20047;-74
2021/07/10 13:13:22;;;;;;;3.05;1.98;;;27.20;1.00;;;;;;5107063;27;20044;-74
2021/07/10 13:16:14;;;;;;;3.42;2.42;;;26.80;1.00;;;;;;5100823;27;20051;-73
2021/07/10 13:19:03;;;;;;;2.75;2.47;;;26.60;1.00;;;;;;5093468;27;20047;-73
2021/07/10 13:21:51;;;;;;;2.83;2.30;;;26.20;1.00;;;;;;5105284;27;20051;-75
2021/07/10 13:24:41;;;;;;;2.70;2.40;;;26.10;1.00;;;;;;5106222;27;20540;-74
2021/07/10 13:27:30;;;;;;;2.22;2.03;;;25.80;1.00;;;;;;5105520;27;20058;-74
2021/07/10 13:30:22;;;;;;;2.70;2.50;;;25.40;1.00;;;;;;5112688;27;20039;-73
2021/07/10 13:33:10;;;;;;;2.80;2.38;;;25.60;1.00;;;;;;5103772;27;20248;-73
2021/07/10 13:36:10;;;;;;;2.45;2.25;;;26.30;1.00;;;;;;5100532;27;20444;-76
2021/07/10 13:39:07;;;;;;;3.45;2.42;;;27.00;1.00;;;;;;5107582;27;20101;-76
2021/07/10 13:42:01;;;;;;;3.15;2.30;;;27.50;1.00;;;;;;5109232;27;20035;-74
2021/07/10 13:44:52;;;;;;;4.38;2.53;;;26.80;1.00;;;;;;5107394;27;20086;-74
2021/07/10 13:47:40;;;;;;;6.07;2.35;;;26.60;1.00;;;;;;5096557;27;20043;-74
2021/07/10 13:50:28;;;;;;;2.45;2.25;;;26.40;1.00;;;;;;5104364;27;20728;-74
2021/07/10 13:53:18;;;;;;;3.03;2.47;;;26.30;1.00;;;;;;5113152;27;20043;-74
2021/07/10 13:56:17;;;;;;;2.95;2.53;;;26.10;1.00;;;;;;5105745;27;20044;-74
2021/07/10 13:59:07;;;;;;;2.58;2.38;;;26.30;1.00;;;;;;5105504;27;20089;-74
2021/07/10 14:01:55;;;;;;;3.65;2.17;;;26.40;1.00;;;;;;5107054;27;20063;-75
2021/07/10 14:04:44;;;;;;;2.30;2.10;;;26.20;1.00;;;;;;5102421;27;20123;-72
2021/07/10 14:07:33;;;;;;;3.40;2.45;;;26.00;1.00;;;;;;5106961;27;20108;-72
2021/07/10 14:10:27;;;;;;;3.17;2.28;;;25.90;1.00;;;;;;5115710;27;20047;-74
2021/07/10 14:13:17;;;;;;;2.80;2.38;;;26.00;1.00;;;;;;5108287;27;20138;-72
2021/07/10 14:16:07;;;;;;;2.95;2.40;;;25.60;1.00;;;;;;5102523;27;20502;-73
2021/07/10 14:18:55;;;;;;;4.70;2.20;;;25.70;1.00;;;;;;5084643;28;20422;-72
2021/07/10 14:21:47;;;;;;;4.47;2.42;;;25.80;1.00;;;;;;5112580;27;20042;-73
2021/07/10 14:24:35;;;;;;;4.28;2.40;;;26.00;1.00;;;;;;5114090;27;20043;-73
2021/07/10 14:27:23;;;;;;;2.95;2.33;;;25.80;1.00;;;;;;5110668;27;20051;-72
2021/07/10 14:30:15;;;;;;;3.90;2.25;;;25.80;1.00;;;;;;5104477;27;20052;-74
2021/07/10 14:33:07;;;;;;;2.92;2.45;;;25.70;1.00;;;;;;5105621;27;20374;-73
2021/07/10 14:35:56;;;;;;;2.75;2.40;;;25.90;1.00;;;;;;5105097;27;20047;-73
2021/07/10 14:38:44;;;;;;;3.22;2.38;;;25.90;1.00;;;;;;5107248;27;20055;-73
2021/07/10 14:41:33;;;;;;;3.17;2.40;;;26.10;1.00;;;;;;5108615;27;20051;-74
2021/07/10 14:44:21;;;;;;;2.80;2.08;;;26.50;1.00;;;;;;5109625;27;20501;-73
2021/07/10 14:47:10;;;;;;;3.28;2.47;;;26.60;1.00;;;;;;5096300;28;20226;-72